Time;durP1;ratioP1;P1;durP2;ratioP2;P2;SDS_P1;SDS_P2;PMS_P1;PMS_P2;Temp;Humidity;BMP_temperature;BMP_pressure;BME280_temperature;BME280_humidity;BME280_pressure;Samples;Min_cycle;Max_cycle;Signal;HPM_P1;HPM_P2
2020/12/23 00:00:10;;;;;;;36.65;17.77;;;12.40;99.90;;;;;;5049085;28;20917;-74
2020/12/23 00:02:36;;;;;;;39.90;19.20;;;12.40;99.90;;;;;;5050805;28;20389;-72
2020/12/23 00:05:04;;;;;;;25.17;15.38;;;12.40;99.90;;;;;;5050335;28;20443;-73
2020/12/23 00:07:30;;;;;;;27.38;14.60;;;12.40;99.90;;;;;;5050181;28;20378;-77
2020/12/23 00:09:56;;;;;;;31.40;14.40;;;12.40;99.90;;;;;;5054603;28;20412;-76
2020/12/23 00:12:21;;;;;;;31.45;15.35;;;12.50;99.90;;;;;;5055132;28;20612;-75
2020/12/23 00:14:47;;;;;;;27.55;14.18;;;12.50;99.90;;;;;;5057492;28;20416;-75
2020/12/23 00:17:12;;;;;;;31.27;15.50;;;12.50;99.90;;;;;;5059724;28;20386;-75
2020/12/23 00:19:38;;;;;;;34.90;15.07;;;12.50;99.90;;;;;;5058603;28;20440;-75
2020/12/23 00:22:03;;;;;;;32.07;15.10;;;12.40;99.90;;;;;;5058766;28;20416;-74
2020/12/23 00:24:29;;;;;;;31.87;15.07;;;12.40;99.90;;;;;;5054213;28;20471;-74
2020/12/23 00:26:54;;;;;;;29.23;14.37;;;12.40;99.90;;;;;;5050302;28;20389;-73
2020/12/23 00:29:20;;;;;;;24.67;14.32;;;12.50;99.90;;;;;;5032519;28;20396;-72
2020/12/23 00:31:46;;;;;;;30.52;15.20;;;12.50;99.40;;;;;;5032135;28;20385;-72
2020/12/23 00:34:11;;;;;;;28.90;14.93;;;12.60;99.70;;;;;;5050169;28;20420;-74
2020/12/23 00:36:37;;;;;;;28.40;15.17;;;12.60;98.00;;;;;;5050422;28;20480;-73
2020/12/23 00:39:03;;;;;;;28.60;16.10;;;12.50;99.00;;;;;;5049338;28;20409;-73
2020/12/23 00:41:28;;;;;;;32.60;16.13;;;12.40;99.90;;;;;;5050110;28;20385;-73
2020/12/23 00:43:54;;;;;;;32.08;15.32;;;12.40;99.90;;;;;;5050026;28;20417;-72
2020/12/23 00:46:20;;;;;;;28.67;15.60;;;12.40;99.90;;;;;;5050339;28;20369;-74
2020/12/23 00:48:45;;;;;;;27.80;14.50;;;12.30;99.90;;;;;;5049860;28;20442;-73
2020/12/23 00:51:13;;;;;;;32.43;14.83;;;12.40;99.90;;;;;;5050135;28;20910;-73
2020/12/23 00:53:42;;;;;;;25.83;14.40;;;12.40;99.90;;;;;;5049289;28;20762;-74
2020/12/23 00:56:08;;;;;;;28.27;14.98;;;12.50;99.90;;;;;;5050041;28;20412;-74
2020/12/23 00:58:33;;;;;;;26.77;14.80;;;12.40;99.60;;;;;;5031922;28;20401;-73
2020/12/23 01:00:59;;;;;;;28.95;14.38;;;12.40;99.90;;;;;;5050028;28;20392;-73
2020/12/23 01:03:25;;;;;;;33.38;14.93;;;12.40;99.70;;;;;;5050234;28;20377;-72
2020/12/23 01:05:51;;;;;;;30.80;15.43;;;12.40;99.90;;;;;;5050148;28;20377;-73
2020/12/23 01:08:17;;;;;;;32.00;15.20;;;12.40;99.90;;;;;;5031374;28;20389;-74
2020/12/23 01:10:46;;;;;;;32.67;13.67;;;12.40;99.90;;;;;;5051435;28;20747;-74
2020/12/23 01:13:13;;;;;;;27.45;13.80;;;12.30;99.90;;;;;;5053749;28;20404;-73
2020/12/23 01:15:38;;;;;;;27.58;13.98;;;12.40;99.80;;;;;;5035806;28;20419;-74
2020/12/23 01:18:04;;;;;;;25.30;11.70;;;12.30;99.90;;;;;;5053506;28;20413;-73
2020/12/23 01:20:30;;;;;;;23.80;13.77;;;12.40;99.90;;;;;;5053717;28;20381;-72
2020/12/23 01:22:56;;;;;;;26.08;13.48;;;12.20;99.90;;;;;;5053252;28;20508;-74
2020/12/23 01:25:21;;;;;;;28.73;13.68;;;12.20;99.90;;;;;;5053686;28;20476;-74
2020/12/23 01:27:47;;;;;;;30.63;15.70;;;12.20;99.90;;;;;;5053334;28;20385;-74
2020/12/23 01:30:14;;;;;;;31.85;16.20;;;12.20;99.90;;;;;;5053761;28;20464;-73
2020/12/23 01:32:39;;;;;;;33.30;16.98;;;12.20;99.90;;;;;;5053180;28;20389;-74
2020/12/23 01:35:05;;;;;;;35.27;16.53;;;12.20;99.90;;;;;;5052957;28;20758;-74
2020/12/23 01:37:31;;;;;;;33.20;16.17;;;12.30;99.90;;;;;;5053113;28;20890;-73
2020/12/23 01:39:56;;;;;;;30.30;16.65;;;12.30;99.90;;;;;;5053239;28;20458;-74
2020/12/23 01:42:22;;;;;;;32.80;15.60;;;12.30;99.90;;;;;;5053240;28;20385;-74
2020/12/23 01:44:47;;;;;;;35.60;17.10;;;12.30;99.90;;;;;;5053271;28;20390;-75
2020/12/23 01:47:21;;;;;;;32.30;15.47;;;12.30;99.90;;;;;;5052932;28;20389;-73
2020/12/23 01:49:48;;;;;;;30.42;16.42;;;12.30;99.90;;;;;;5052478;28;20416;-73
2020/12/23 01:52:15;;;;;;;31.08;16.23;;;12.30;99.90;;;;;;5052893;28;20393;-74
2020/12/23 01:54:41;;;;;;;34.63;15.95;;;12.20;99.90;;;;;;5035056;28;20475;-74
2020/12/23 01:57:10;;;;;;;29.75;15.43;;;12.30;99.90;;;;;;5052506;28;20411;-74
2020/12/23 01:59:37;;;;;;;33.40;15.90;;;12.20;99.90;;;;;;5052551;28;20500;-75
2020/12/23 02:02:42;;;;;;;29.23;15.40;;;12.20;99.90;;;;;;5053016;28;20378;-73
2020/12/23 02:05:09;;;;;;;31.25;15.75;;;12.30;99.90;;;;;;4952247;28;20398;-74
2020/12/23 02:07:35;;;;;;;26.50;14.57;;;12.30;99.90;;;;;;4952127;29;20505;-74
2020/12/23 02:10:04;;;;;;;27.58;14.15;;;12.30;99.90;;;;;;4991355;28;20392;-75
2020/12/23 02:12:29;;;;;;;31.00;16.70;;;12.30;99.90;;;;;;5042473;28;20862;-74
2020/12/23 02:14:56;;;;;;;31.38;15.77;;;12.30;99.90;;;;;;5052031;28;20485;-74
2020/12/23 02:17:22;;;;;;;34.03;15.25;;;12.20;99.90;;;;;;5052508;28;20385;-73
2020/12/23 02:19:50;;;;;;;30.60;16.17;;;12.20;99.90;;;;;;5052483;28;20398;-75
2020/12/23 02:22:29;;;;;;;28.70;14.57;;;12.20;99.90;;;;;;5052322;28;20862;-74
2020/12/23 02:24:55;;;;;;;29.92;14.95;;;12.20;99.90;;;;;;5052553;28;20377;-74
2020/12/23 02:27:22;;;;;;;26.65;15.27;;;12.20;99.90;;;;;;5051656;28;20397;-74
2020/12/23 02:29:50;;;;;;;26.17;14.07;;;12.10;99.90;;;;;;5034563;28;21192;-74
2020/12/23 02:32:16;;;;;;;26.42;14.60;;;12.10;99.90;;;;;;5052282;28;20381;-74
2020/12/23 02:34:42;;;;;;;30.53;15.13;;;12.20;99.90;;;;;;5052054;28;20503;-74
2020/12/23 02:37:09;;;;;;;28.50;15.50;;;12.20;99.90;;;;;;5052002;28;20435;-74
2020/12/23 02:39:36;;;;;;;29.00;15.57;;;12.20;99.90;;;;;;5033361;28;20455;-73
2020/12/23 02:42:04;;;;;;;26.73;14.80;;;12.20;99.90;;;;;;5051805;28;20447;-74
2020/12/23 02:44:29;;;;;;;30.33;15.73;;;12.10;99.90;;;;;;5051613;28;20393;-73
2020/12/23 02:47:00;;;;;;;27.17;15.32;;;12.20;99.90;;;;;;5051746;28;20885;-73
2020/12/23 02:49:27;;;;;;;24.60;14.57;;;12.10;99.90;;;;;;5051971;28;20920;-75
2020/12/23 02:51:53;;;;;;;23.53;14.43;;;12.10;99.90;;;;;;5052733;28;20779;-73
2020/12/23 02:54:19;;;;;;;23.23;14.73;;;12.10;99.90;;;;;;5051682;28;20873;-73
2020/12/23 02:56:45;;;;;;;24.50;15.20;;;12.00;99.90;;;;;;5052020;28;20794;-73
2020/12/23 02:59:10;;;;;;;30.55;15.60;;;12.00;99.90;;;;;;5051698;28;20500;-73
2020/12/23 03:01:36;;;;;;;27.63;15.27;;;12.00;99.90;;;;;;5051940;28;20779;-73
2020/12/23 03:04:03;;;;;;;33.90;16.65;;;12.00;99.90;;;;;;5051820;28;20424;-73
2020/12/23 03:06:28;;;;;;;29.37;15.60;;;12.00;99.90;;;;;;5051761;28;20405;-74
2020/12/23 03:08:54;;;;;;;28.63;15.77;;;12.00;99.90;;;;;;5050836;28;20397;-74
2020/12/23 03:11:20;;;;;;;29.57;15.13;;;12.00;99.90;;;;;;5051880;28;20378;-74
2020/12/23 03:13:45;;;;;;;31.53;16.40;;;12.00;99.90;;;;;;5051632;28;20845;-73
2020/12/23 03:16:11;;;;;;;29.40;16.10;;;12.00;99.90;;;;;;5051850;28;20393;-73
2020/12/23 03:18:39;;;;;;;27.43;15.83;;;12.00;99.90;;;;;;5051598;28;20401;-74
2020/12/23 03:21:05;;;;;;;34.27;16.37;;;12.00;99.90;;;;;;5051493;28;22892;-73
2020/12/23 03:23:31;;;;;;;30.60;15.65;;;12.00;99.90;;;;;;5051458;28;20397;-74
2020/12/23 03:25:56;;;;;;;30.25;16.70;;;12.00;99.90;;;;;;5051579;28;20404;-73
2020/12/23 03:28:22;;;;;;;31.67;16.80;;;12.10;99.90;;;;;;5051220;28;20396;-74
2020/12/23 03:30:47;;;;;;;30.67;17.03;;;12.10;99.90;;;;;;5051571;28;20389;-74
2020/12/23 03:33:13;;;;;;;31.87;16.10;;;12.10;99.90;;;;;;5051218;28;20700;-74
2020/12/23 03:35:38;;;;;;;31.90;16.53;;;12.10;99.90;;;;;;5051406;28;20401;-74
2020/12/23 03:38:04;;;;;;;28.00;16.23;;;12.20;99.90;;;;;;5051696;28;20762;-74
2020/12/23 03:40:29;;;;;;;33.03;17.30;;;12.10;99.90;;;;;;5033709;28;20755;-75
2020/12/23 03:42:55;;;;;;;31.43;16.70;;;12.20;99.90;;;;;;5051641;28;20871;-74
2020/12/23 03:45:20;;;;;;;30.90;17.43;;;12.20;99.90;;;;;;5051479;28;20916;-74
2020/12/23 03:47:46;;;;;;;34.10;15.83;;;12.20;99.90;;;;;;5051262;28;20485;-73
2020/12/23 03:50:11;;;;;;;31.45;17.27;;;12.20;99.90;;;;;;5050887;28;20404;-74
2020/12/23 03:52:37;;;;;;;29.52;16.83;;;12.20;99.90;;;;;;5051596;28;20443;-74
2020/12/23 03:55:02;;;;;;;29.63;16.20;;;12.20;99.90;;;;;;5051254;28;20405;-73
2020/12/23 03:57:28;;;;;;;32.17;16.05;;;12.20;99.90;;;;;;5050823;28;20720;-73
2020/12/23 03:59:53;;;;;;;32.60;16.20;;;12.10;99.90;;;;;;5050765;28;20901;-73
2020/12/23 04:02:19;;;;;;;28.63;16.90;;;12.10;99.90;;;;;;5050916;28;20890;-73
2020/12/23 04:04:44;;;;;;;29.67;16.57;;;12.10;99.90;;;;;;5050462;28;20389;-75
2020/12/23 04:07:10;;;;;;;33.28;16.33;;;12.10;99.90;;;;;;5050461;28;20393;-74
2020/12/23 04:09:36;;;;;;;27.58;15.60;;;12.10;99.90;;;;;;5050540;28;20385;-73
2020/12/23 04:12:01;;;;;;;26.70;16.40;;;12.10;99.90;;;;;;5050787;28;20381;-73
2020/12/23 04:14:27;;;;;;;27.98;15.95;;;12.00;99.90;;;;;;5050564;28;20480;-74
2020/12/23 04:16:52;;;;;;;25.17;14.90;;;12.10;99.90;;;;;;5050090;28;20398;-74
2020/12/23 04:19:18;;;;;;;31.80;15.07;;;12.10;99.90;;;;;;5050349;28;20987;-74
2020/12/23 04:21:43;;;;;;;29.47;14.43;;;12.10;99.90;;;;;;5050884;28;20423;-73
2020/12/23 04:24:09;;;;;;;23.20;15.03;;;12.10;99.90;;;;;;5051153;28;20377;-74
2020/12/23 04:26:35;;;;;;;18.88;12.60;;;12.10;99.90;;;;;;5050740;28;20388;-75
2020/12/23 04:29:00;;;;;;;19.20;11.88;;;12.20;99.90;;;;;;5032603;28;20386;-73
2020/12/23 04:31:26;;;;;;;19.20;11.57;;;12.20;99.90;;;;;;5050101;28;20393;-73
2020/12/23 04:33:51;;;;;;;20.87;11.63;;;12.20;99.90;;;;;;5050495;28;20690;-74
2020/12/23 04:36:17;;;;;;;17.00;10.67;;;12.10;99.90;;;;;;5050784;28;20392;-73
2020/12/23 04:38:42;;;;;;;18.00;10.70;;;12.20;99.90;;;;;;5050353;28;20452;-72
2020/12/23 04:41:08;;;;;;;16.65;9.77;;;12.20;99.90;;;;;;5050721;28;20393;-74
2020/12/23 04:43:34;;;;;;;15.13;9.20;;;12.20;99.90;;;;;;5049946;28;20450;-72
2020/12/23 04:46:01;;;;;;;12.00;7.87;;;12.30;99.90;;;;;;5053738;28;20389;-74
2020/12/23 04:48:31;;;;;;;12.13;8.30;;;12.20;99.90;;;;;;5053863;28;20474;-73
2020/12/23 04:50:57;;;;;;;11.80;7.68;;;12.20;99.90;;;;;;5054236;28;20885;-72
2020/12/23 04:53:23;;;;;;;9.23;6.82;;;12.20;99.90;;;;;;5054083;28;20382;-72
2020/12/23 04:55:49;;;;;;;9.65;7.13;;;12.20;99.90;;;;;;5054039;28;20939;-72
2020/12/23 04:58:15;;;;;;;11.43;6.82;;;12.30;99.90;;;;;;5053767;28;20448;-72
2020/12/23 05:00:41;;;;;;;7.85;5.72;;;12.30;99.90;;;;;;5053398;28;20405;-73
2020/12/23 05:03:06;;;;;;;9.00;6.10;;;12.30;99.90;;;;;;5053766;28;20378;-73
2020/12/23 05:05:32;;;;;;;9.65;5.70;;;12.30;99.90;;;;;;5053728;28;20420;-74
2020/12/23 05:07:58;;;;;;;9.40;6.40;;;12.30;99.90;;;;;;5033394;28;20856;-71
2020/12/23 05:10:28;;;;;;;10.60;6.57;;;12.30;99.90;;;;;;5034422;28;20387;-74
2020/12/23 05:12:55;;;;;;;11.27;6.70;;;12.30;99.90;;;;;;5039163;28;20728;-73
2020/12/23 05:15:20;;;;;;;8.88;6.97;;;12.20;99.90;;;;;;5054185;28;20393;-73
2020/12/23 05:17:46;;;;;;;7.67;6.00;;;12.30;99.90;;;;;;5054073;28;20385;-73
2020/12/23 05:20:12;;;;;;;8.20;6.80;;;12.20;99.90;;;;;;5054557;28;20409;-73
2020/12/23 05:22:37;;;;;;;9.70;6.70;;;12.20;99.90;;;;;;5053964;28;20385;-73
2020/12/23 05:25:03;;;;;;;9.33;6.70;;;12.30;99.90;;;;;;5054015;28;20428;-74
2020/12/23 05:27:32;;;;;;;12.10;6.97;;;12.30;99.90;;;;;;5052665;28;20389;-74
2020/12/23 05:30:02;;;;;;;11.70;7.30;;;12.20;99.90;;;;;;5053431;28;20381;-72
2020/12/23 05:32:28;;;;;;;6.63;5.93;;;12.30;99.90;;;;;;5053240;28;20516;-74
2020/12/23 05:35:00;;;;;;;8.85;6.70;;;12.20;99.90;;;;;;5053369;28;20464;-73
2020/12/23 05:37:26;;;;;;;9.68;6.50;;;12.30;99.90;;;;;;5056011;28;20374;-74
2020/12/23 05:39:52;;;;;;;9.40;6.90;;;12.30;99.90;;;;;;5055802;28;20488;-74
2020/12/23 05:42:18;;;;;;;9.20;6.68;;;12.30;99.90;;;;;;5052654;28;20448;-74
2020/12/23 05:44:51;;;;;;;10.07;7.35;;;12.20;99.90;;;;;;5055145;28;20396;-75
2020/12/23 05:47:24;;;;;;;15.98;8.27;;;12.20;99.90;;;;;;5056053;28;20385;-77
2020/12/23 05:49:52;;;;;;;11.52;9.23;;;12.30;99.90;;;;;;5062785;28;20396;-75
2020/12/23 05:52:21;;;;;;;14.47;10.10;;;12.30;99.90;;;;;;5060517;28;20385;-73
2020/12/23 05:54:53;;;;;;;11.27;9.30;;;12.20;99.90;;;;;;5058224;28;20393;-75
2020/12/23 05:57:19;;;;;;;14.80;9.10;;;12.20;99.90;;;;;;5058594;28;20815;-76
2020/12/23 05:59:45;;;;;;;15.20;9.50;;;12.20;99.90;;;;;;5061288;28;20397;-74
2020/12/23 06:02:12;;;;;;;13.75;8.70;;;12.20;99.90;;;;;;5053194;28;20432;-73
2020/12/23 06:04:42;;;;;;;13.65;8.43;;;12.20;99.90;;;;;;5053343;28;20408;-73
2020/12/23 06:07:08;;;;;;;7.95;6.65;;;12.20;99.90;;;;;;5059524;28;20382;-74
2020/12/23 06:09:47;;;;;;;7.03;6.10;;;12.30;99.90;;;;;;5047943;28;20400;-75
2020/12/23 06:12:18;;;;;;;11.03;5.80;;;12.30;99.90;;;;;;5063170;28;20498;-74
2020/12/23 06:14:57;;;;;;;6.00;4.78;;;12.30;99.90;;;;;;5052363;28;20391;-74
2020/12/23 06:17:26;;;;;;;7.68;5.55;;;12.30;99.90;;;;;;5052497;28;20886;-75
2020/12/23 06:19:57;;;;;;;7.63;5.80;;;12.30;99.90;;;;;;5052398;28;20420;-73
2020/12/23 06:22:25;;;;;;;10.27;6.40;;;12.30;99.90;;;;;;5052013;28;20468;-73
2020/12/23 06:24:51;;;;;;;11.57;7.07;;;12.20;99.90;;;;;;5052138;28;20905;-73
2020/12/23 06:27:17;;;;;;;11.65;8.48;;;12.30;99.90;;;;;;5051414;28;20381;-72
2020/12/23 06:29:44;;;;;;;15.35;9.25;;;12.20;99.90;;;;;;5051507;28;20385;-73
2020/12/23 06:32:18;;;;;;;17.77;11.17;;;12.20;99.90;;;;;;5051822;28;20472;-72
2020/12/23 06:34:44;;;;;;;16.38;11.75;;;12.10;99.90;;;;;;5051720;28;20385;-74
2020/12/23 06:37:21;;;;;;;14.75;10.88;;;12.10;99.90;;;;;;5051113;28;20405;-73
2020/12/23 06:39:48;;;;;;;16.25;11.82;;;12.10;99.90;;;;;;5033750;28;20845;-73
2020/12/23 06:42:13;;;;;;;19.08;13.30;;;12.10;99.90;;;;;;5033696;28;20432;-72
2020/12/23 06:44:45;;;;;;;17.97;12.80;;;12.10;99.90;;;;;;5051406;28;20807;-73
2020/12/23 06:47:11;;;;;;;18.13;12.20;;;12.10;99.90;;;;;;5050910;28;20443;-74
2020/12/23 06:49:38;;;;;;;18.85;12.93;;;12.10;99.90;;;;;;5051187;28;20389;-74
2020/12/23 06:52:22;;;;;;;16.30;11.98;;;12.10;99.90;;;;;;5050909;28;20431;-75
2020/12/23 06:54:52;;;;;;;16.60;11.70;;;12.10;99.90;;;;;;5051185;28;20394;-74
2020/12/23 06:57:36;;;;;;;16.08;11.95;;;12.20;99.90;;;;;;5051257;28;20464;-74
2020/12/23 07:00:06;;;;;;;18.08;12.48;;;12.20;99.90;;;;;;5051326;28;20436;-73
2020/12/23 07:02:35;;;;;;;20.55;13.30;;;12.10;99.90;;;;;;5051377;28;20409;-74
2020/12/23 07:05:00;;;;;;;29.00;11.63;;;12.10;99.90;;;;;;5050711;28;20755;-74
2020/12/23 07:07:39;;;;;;;13.20;10.77;;;12.10;99.90;;;;;;5050074;28;20392;-73
2020/12/23 07:10:05;;;;;;;17.25;11.75;;;12.20;99.90;;;;;;5050257;28;20747;-74
2020/12/23 07:12:34;;;;;;;17.42;11.35;;;12.20;99.90;;;;;;5050990;28;20378;-74
2020/12/23 07:15:10;;;;;;;15.98;12.13;;;12.20;99.90;;;;;;5054366;28;20385;-74
2020/12/23 07:17:39;;;;;;;14.68;11.65;;;12.10;99.90;;;;;;5056521;28;20377;-74
2020/12/23 07:20:06;;;;;;;14.95;11.27;;;12.10;99.90;;;;;;5056421;28;20429;-74
2020/12/23 07:22:33;;;;;;;16.25;10.80;;;12.10;99.90;;;;;;5056322;28;20380;-75
2020/12/23 07:24:59;;;;;;;12.93;9.88;;;12.10;99.90;;;;;;5052145;28;20422;-74
2020/12/23 07:27:26;;;;;;;12.73;10.17;;;12.20;99.90;;;;;;5051292;28;20466;-75
2020/12/23 07:30:05;;;;;;;16.80;10.70;;;12.20;99.90;;;;;;5053309;28;20476;-75
2020/12/23 07:32:30;;;;;;;14.15;10.70;;;12.20;99.90;;;;;;5051313;28;20381;-71
2020/12/23 07:34:59;;;;;;;13.68;9.63;;;12.10;99.90;;;;;;5050744;28;20404;-71
2020/12/23 07:37:27;;;;;;;12.77;9.60;;;12.10;99.90;;;;;;5050635;28;20377;-72
2020/12/23 07:39:52;;;;;;;12.75;9.40;;;12.10;99.90;;;;;;5051025;28;20467;-73
2020/12/23 07:42:19;;;;;;;18.52;9.88;;;12.10;99.90;;;;;;5050836;28;20922;-74
2020/12/23 07:44:52;;;;;;;39.97;22.63;;;12.10;99.90;;;;;;5050642;28;20496;-73
2020/12/23 07:47:24;;;;;;;13.65;10.02;;;12.00;99.90;;;;;;5049901;28;20404;-73
2020/12/23 07:50:01;;;;;;;14.40;9.83;;;12.00;99.90;;;;;;5050736;28;20396;-73
2020/12/23 07:52:28;;;;;;;12.63;8.90;;;12.00;99.90;;;;;;5050175;28;20410;-73
2020/12/23 07:54:53;;;;;;;14.25;10.10;;;12.00;99.90;;;;;;5050245;28;20393;-73
2020/12/23 07:57:29;;;;;;;16.20;10.27;;;12.00;99.90;;;;;;5051411;28;20739;-75
2020/12/23 08:00:07;;;;;;;14.77;10.05;;;12.10;99.90;;;;;;5052573;28;20420;-73
2020/12/23 08:02:33;;;;;;;16.10;9.63;;;12.00;99.90;;;;;;5052526;28;20386;-73
2020/12/23 08:04:59;;;;;;;19.42;11.50;;;12.00;99.90;;;;;;5054073;28;20381;-72
2020/12/23 08:07:25;;;;;;;16.38;10.70;;;12.00;99.90;;;;;;5054339;28;20455;-73
2020/12/23 08:09:51;;;;;;;19.02;11.38;;;12.10;99.90;;;;;;5053760;28;20417;-74
2020/12/23 08:12:21;;;;;;;16.20;10.60;;;12.00;99.90;;;;;;5052017;28;20393;-73
2020/12/23 08:14:47;;;;;;;19.27;11.00;;;12.00;99.90;;;;;;5056537;28;20385;-74
2020/12/23 08:17:22;;;;;;;16.40;11.05;;;12.00;99.90;;;;;;5055381;28;20401;-74
2020/12/23 08:20:06;;;;;;;19.67;11.40;;;12.00;99.90;;;;;;5036963;28;20986;-72
2020/12/23 08:22:36;;;;;;;20.85;11.40;;;12.00;99.90;;;;;;5051368;28;20475;-74
2020/12/23 08:25:04;;;;;;;20.17;10.50;;;12.10;99.90;;;;;;5049894;28;20381;-74
2020/12/23 08:27:30;;;;;;;15.87;10.40;;;12.10;99.90;;;;;;5048823;28;20420;-74
2020/12/23 08:29:57;;;;;;;18.33;10.82;;;12.10;99.90;;;;;;5049021;28;20393;-74
2020/12/23 08:32:26;;;;;;;14.55;9.40;;;12.10;99.90;;;;;;5049867;28;20390;-74
2020/12/23 08:34:52;;;;;;;16.73;9.32;;;12.10;99.90;;;;;;5049289;28;20400;-73
2020/12/23 08:37:21;;;;;;;18.65;9.85;;;12.20;99.90;;;;;;5049370;28;20386;-73
2020/12/23 08:39:53;;;;;;;16.90;10.13;;;12.20;99.90;;;;;;5049340;28;20503;-76
2020/12/23 08:42:20;;;;;;;13.73;9.45;;;12.20;99.90;;;;;;5049771;28;20511;-73
2020/12/23 08:44:49;;;;;;;15.90;9.32;;;12.20;99.90;;;;;;5049123;28;20405;-73
2020/12/23 08:47:20;;;;;;;13.05;8.75;;;12.30;99.90;;;;;;5049450;28;20385;-72
2020/12/23 08:49:47;;;;;;;13.70;9.18;;;12.30;99.90;;;;;;5049104;28;20412;-73
2020/12/23 08:52:20;;;;;;;12.18;7.80;;;12.40;99.90;;;;;;5050021;28;20515;-74
2020/12/23 08:54:46;;;;;;;12.93;8.50;;;12.30;99.90;;;;;;5049894;28;20753;-74
2020/12/23 08:57:16;;;;;;;11.35;7.72;;;12.30;99.90;;;;;;5049738;28;20468;-74
2020/12/23 08:59:42;;;;;;;10.75;7.50;;;12.30;99.90;;;;;;5048735;28;20450;-73
2020/12/23 09:02:14;;;;;;;11.90;8.07;;;12.40;99.90;;;;;;5050213;28;20667;-73
2020/12/23 09:04:40;;;;;;;12.35;7.47;;;12.40;99.90;;;;;;5049307;28;20417;-74
2020/12/23 09:07:06;;;;;;;12.03;7.43;;;12.50;99.90;;;;;;5049191;28;20448;-73
2020/12/23 09:09:32;;;;;;;8.45;6.68;;;12.60;99.90;;;;;;5049297;28;20385;-74
2020/12/23 09:11:58;;;;;;;9.90;7.30;;;12.70;99.90;;;;;;5034773;28;20487;-72
2020/12/23 09:14:31;;;;;;;10.32;6.70;;;12.70;99.90;;;;;;5049191;28;20489;-74
2020/12/23 09:16:59;;;;;;;9.10;7.45;;;12.70;99.90;;;;;;5049371;28;20381;-73
2020/12/23 09:20:03;;;;;;;7.65;6.53;;;12.80;99.90;;;;;;5050886;28;20406;-74
2020/12/23 09:22:32;;;;;;;10.90;7.07;;;12.90;99.90;;;;;;5051825;28;20386;-73
2020/12/23 09:25:29;;;;;;;11.60;6.80;;;12.90;99.80;;;;;;5051620;28;20482;-74
2020/12/23 09:28:04;;;;;;;8.93;6.75;;;13.00;98.80;;;;;;5050026;28;20393;-73
2020/12/23 09:30:51;;;;;;;10.60;7.38;;;13.10;98.00;;;;;;5049773;28;20393;-74
2020/12/23 09:33:22;;;;;;;9.90;6.60;;;13.10;97.80;;;;;;5037702;28;20446;-73
2020/12/23 09:35:50;;;;;;;12.30;6.87;;;13.10;96.90;;;;;;5054808;28;20864;-74
2020/12/23 09:38:30;;;;;;;13.48;7.28;;;13.20;96.50;;;;;;5054785;28;20464;-74
2020/12/23 09:40:58;;;;;;;9.47;6.20;;;13.20;96.50;;;;;;5054488;28;20393;-72
2020/12/23 09:43:28;;;;;;;10.13;6.00;;;13.30;95.50;;;;;;5054992;28;20514;-74
2020/12/23 09:46:00;;;;;;;8.82;6.10;;;13.30;95.30;;;;;;5055274;28;20408;-76
2020/12/23 09:48:27;;;;;;;8.05;5.70;;;13.40;94.20;;;;;;5036835;28;20412;-72
2020/12/23 09:50:53;;;;;;;8.40;5.90;;;13.50;93.40;;;;;;5054119;28;20400;-72
2020/12/23 09:53:20;;;;;;;7.40;5.70;;;13.50;92.50;;;;;;5054799;28;20489;-72
2020/12/23 09:55:46;;;;;;;7.88;5.70;;;13.50;93.00;;;;;;5054103;28;20484;-72
2020/12/23 09:58:13;;;;;;;8.67;6.17;;;13.50;92.50;;;;;;5054597;28;20393;-73
2020/12/23 10:00:39;;;;;;;9.18;5.93;;;13.60;91.70;;;;;;5054741;28;20397;-73
2020/12/23 10:03:05;;;;;;;10.07;5.72;;;13.70;92.20;;;;;;5054844;28;20381;-73
2020/12/23 10:05:31;;;;;;;9.18;6.57;;;13.70;91.80;;;;;;5055329;28;20413;-75
2020/12/23 10:08:00;;;;;;;10.63;6.70;;;13.80;91.20;;;;;;5054463;28;20419;-73
2020/12/23 10:10:25;;;;;;;8.20;6.05;;;13.80;91.00;;;;;;5053872;28;20401;-74
2020/12/23 10:12:51;;;;;;;6.15;5.40;;;13.80;90.40;;;;;;5054426;28;20377;-74
2020/12/23 10:15:16;;;;;;;6.67;5.10;;;13.90;87.20;;;;;;5059277;28;20455;-73
2020/12/23 10:17:42;;;;;;;6.63;5.40;;;14.00;85.60;;;;;;5057719;28;20378;-73
2020/12/23 10:20:08;;;;;;;8.55;4.95;;;14.00;85.00;;;;;;5058978;28;20401;-73
2020/12/23 10:22:35;;;;;;;7.45;5.20;;;13.90;85.60;;;;;;5059167;28;20389;-73
2020/12/23 10:25:01;;;;;;;5.93;4.20;;;13.90;85.70;;;;;;5058103;28;20386;-72
2020/12/23 10:27:27;;;;;;;7.32;4.80;;;13.90;85.90;;;;;;5059017;28;20480;-73
2020/12/23 10:29:52;;;;;;;4.82;4.07;;;13.90;85.90;;;;;;5058725;28;20433;-73
2020/12/23 10:32:21;;;;;;;5.68;4.07;;;14.00;83.40;;;;;;5058944;28;20454;-77
2020/12/23 10:34:47;;;;;;;4.95;4.18;;;13.90;83.90;;;;;;5058871;28;20452;-73
2020/12/23 10:37:19;;;;;;;5.65;4.05;;;13.90;84.10;;;;;;5057153;28;20448;-75
2020/12/23 10:39:45;;;;;;;7.77;4.40;;;13.80;84.60;;;;;;5058502;28;20413;-74
2020/12/23 10:42:11;;;;;;;7.22;4.20;;;13.90;84.20;;;;;;5061277;28;20385;-72
2020/12/23 10:44:36;;;;;;;6.47;4.32;;;13.90;84.50;;;;;;5062339;28;20820;-72
2020/12/23 10:47:02;;;;;;;6.33;4.40;;;14.00;84.20;;;;;;5042362;28;20502;-74
2020/12/23 10:49:28;;;;;;;5.47;4.10;;;13.90;84.40;;;;;;5057601;28;20397;-73
2020/12/23 10:51:58;;;;;;;5.00;4.03;;;13.90;84.20;;;;;;5055360;28;20439;-73
2020/12/23 10:54:25;;;;;;;5.63;4.55;;;14.00;83.60;;;;;;5051717;28;20810;-73
2020/12/23 10:56:50;;;;;;;7.75;4.80;;;13.90;83.50;;;;;;5051787;28;20382;-72
2020/12/23 10:59:16;;;;;;;7.13;4.57;;;13.90;83.50;;;;;;5052041;28;20796;-74
2020/12/23 11:01:42;;;;;;;6.57;4.35;;;13.90;83.30;;;;;;5051387;28;20392;-73
2020/12/23 11:04:08;;;;;;;6.00;4.47;;;13.90;83.80;;;;;;5051173;28;20377;-73
2020/12/23 11:06:34;;;;;;;6.80;5.53;;;13.90;83.40;;;;;;5050806;28;20385;-72
2020/12/23 11:09:00;;;;;;;8.73;4.90;;;14.00;82.50;;;;;;5050162;28;20393;-73
2020/12/23 11:11:26;;;;;;;4.72;4.05;;;13.90;82.50;;;;;;5050970;28;20447;-74
2020/12/23 11:13:52;;;;;;;7.63;4.60;;;14.00;83.00;;;;;;5051220;28;20412;-74
2020/12/23 11:16:19;;;;;;;4.47;3.80;;;14.00;81.80;;;;;;5051561;28;20435;-74
2020/12/23 11:18:45;;;;;;;5.25;4.25;;;13.90;82.30;;;;;;5050395;28;20445;-73
2020/12/23 11:21:12;;;;;;;5.18;4.03;;;13.80;82.90;;;;;;5051669;28;20396;-73
2020/12/23 11:23:38;;;;;;;6.40;4.32;;;13.70;83.80;;;;;;5033177;28;20495;-72
2020/12/23 11:26:03;;;;;;;5.93;4.30;;;13.80;83.20;;;;;;5056853;28;20385;-74
2020/12/23 11:28:32;;;;;;;5.25;4.10;;;13.70;83.30;;;;;;5057072;28;20393;-74
2020/12/23 11:31:03;;;;;;;5.70;4.32;;;13.70;83.30;;;;;;5056524;28;20413;-74
2020/12/23 11:33:29;;;;;;;7.18;4.43;;;13.70;84.30;;;;;;5055907;28;20394;-73
2020/12/23 11:35:55;;;;;;;5.72;4.50;;;13.70;85.60;;;;;;5058359;28;20516;-74
2020/12/23 11:38:21;;;;;;;7.40;4.72;;;13.60;85.90;;;;;;5058257;28;20493;-73
2020/12/23 11:40:47;;;;;;;8.27;4.18;;;13.70;86.10;;;;;;5055646;28;20516;-74
2020/12/23 11:43:12;;;;;;;8.52;4.50;;;13.70;85.30;;;;;;5053649;28;20393;-76
2020/12/23 11:45:38;;;;;;;6.22;4.68;;;13.70;85.10;;;;;;5052411;28;20427;-73
2020/12/23 11:48:03;;;;;;;10.10;6.17;;;13.60;86.90;;;;;;5051765;28;20436;-73
2020/12/23 11:50:29;;;;;;;6.57;4.40;;;13.70;88.10;;;;;;5053718;28;20388;-73
2020/12/23 11:52:55;;;;;;;6.95;4.70;;;13.70;87.00;;;;;;5053107;28;20511;-73
2020/12/23 11:55:20;;;;;;;7.47;4.90;;;13.60;88.60;;;;;;5052668;28;20475;-73
2020/12/23 11:57:46;;;;;;;6.38;4.47;;;13.50;90.80;;;;;;5052953;28;20373;-73
2020/12/23 12:00:12;;;;;;;6.53;5.00;;;13.40;91.80;;;;;;5034888;28;20407;-73
2020/12/23 12:02:38;;;;;;;6.97;5.35;;;13.30;92.80;;;;;;5050632;28;20865;-72
2020/12/23 12:05:04;;;;;;;7.05;5.35;;;13.20;94.60;;;;;;5050939;28;20385;-72
2020/12/23 12:07:30;;;;;;;9.82;6.75;;;13.10;96.90;;;;;;5050923;28;20821;-73
2020/12/23 12:09:56;;;;;;;12.98;6.40;;;13.20;97.00;;;;;;5051060;28;20420;-72
2020/12/23 12:12:24;;;;;;;9.13;7.28;;;13.10;97.10;;;;;;5050754;28;20393;-72
2020/12/23 12:14:49;;;;;;;6.75;5.22;;;13.30;96.30;;;;;;5050747;28;20822;-73
2020/12/23 12:17:15;;;;;;;6.90;5.80;;;13.30;95.10;;;;;;5049910;28;20396;-73
2020/12/23 12:19:40;;;;;;;5.32;4.80;;;13.30;94.30;;;;;;5053496;28;20457;-73
2020/12/23 12:22:06;;;;;;;6.57;5.13;;;13.20;94.70;;;;;;5070497;28;20395;-72
2020/12/23 12:24:31;;;;;;;7.73;5.50;;;13.20;95.50;;;;;;5070315;28;20414;-73
2020/12/23 12:26:57;;;;;;;7.22;5.50;;;13.20;95.60;;;;;;5070418;28;20391;-72
2020/12/23 12:29:22;;;;;;;9.00;5.30;;;13.20;96.00;;;;;;5066034;28;20385;-72
2020/12/23 12:31:51;;;;;;;6.50;4.90;;;13.10;95.70;;;;;;5050431;28;20397;-72
2020/12/23 12:34:16;;;;;;;7.20;5.40;;;13.10;97.40;;;;;;5050800;28;20478;-72
2020/12/23 12:36:42;;;;;;;6.90;6.00;;;13.00;97.10;;;;;;5051174;28;20923;-71